ENRA/MQN METAR and TAF weather

Enter ICAO airport designator
Station Type Date Time Source
ENRA METAR 2021/09/23 20:50 UTC NOAA

ENRA 232050Z VRB02KT 9999 FEW010 SCT016 BKN030 07/06 Q0994


Station Type Date Time Source
ENRA Decoded METAR 2021/09/23 20:50 UTC NOAA

Mo I Rana / Rossvoll, Norway (ENRA) 66-22N 014-18E 70M
Sep 23, 2021 - 04:50 PM EDT / 2021.09.23 2050 UTC
Wind: Variable at 2 MPH (2 KT):0
Visibility: greater than 7 mile(s):0
Sky conditions: mostly cloudy
Temperature: 44 F (7 C)
Dew Point: 42 F (6 C)
Relative Humidity: 93%
Pressure (altimeter): 29.35 in. Hg (0994 hPa)
ob: ENRA 232050Z VRB02KT 9999 FEW010 SCT016 BKN030 07/06 Q0994
cycle: 21

Station Type Date Time Source
ENRA TAF UTC NOAA

Error!

Example: see airport list